<?xml version="1.0" encoding="UTF-8" standalone="no" ?>
<gpx xmlns="http://www.topografix.com/GPX/1/1" xmlns:xsi="http://www.w3.org/2001/XMLSchema-instance" xsi:schemaLocation="http://www.topografix.com/GPX/1/1 http://www.topografix.com/GPX/1/1/gpx.xsd" version="1.1" creator="VisuGPX - https://www.visugpx.com">
  <metadata>
    <name>sortie 26/06/22</name>
    <desc><![CDATA[Départ avec quelques gouttes qui évoluent dans le mauvais sens. Le gros coup de vent d'il y a deux jours a fait quelques dégâts donc arbres couchés à éviter. Comme la pluie devenait très forte, j'ai shunté le parcours initial et retour sur la route avec l'avantage de laver le vélo. Mais je ne suis pas en sucre donc je sui prêt à repartir.
]]></desc>
  </metadata>
  <trk>
    <name><![CDATA[2022-06-26 10:32]]></name>
    <desc><![CDATA[<h1>OruxMaps</h1><br /><hr align="center" width="480" style="height: 2px; width: 517px"/><h2>Nom: 2022-06-26 10:32</h2><br /><p>Temps de départ: 06/26/2022 10:31</p><p>Temps d'arrivée: 06/26/2022 11:54</p><p>Distance: 18,5km (01:22)</p><p>Temps déplacement: 01:19</p><p>Vitesse moyenne: 13,5km/h</p><p>Vitesse moyenne: 14km/h</p><p>Vitess Max.: 45,5km/h</p><p>Altitude minimale: -49m</p><p>Altitude maximale: 282m</p><p>Vitesse d'élévation: 785,4m/h</p><p>Vitesse de descente: -612,5m/h</p><p>Gain Altitude: 457m</p><p>Perte Altitude: -175m</p><p>Temps d'élévation: 00:34</p><p>Temps de descente: 00:17</p><hr align="center" width="480" style="height: 2px; width: 517px"/>]]></desc>
    <trkseg>
      <trkpt lat="47.68799" lon="6.04367">
        <ele>-49.75</ele>
        <time>2022-06-26T08:31:55Z</time>
      </trkpt>
      <trkpt lat="47.68823" lon="6.04343">
        <ele>-49.75</ele>
        <time>2022-06-26T08:31:56Z</time>
      </trkpt>
      <trkpt lat="47.68859" lon="6.04292">
        <ele>-49.75</ele>
        <time>2022-06-26T08:31:57Z</time>
      </trkpt>
      <trkpt lat="47.6875" lon="6.04278">
        <ele>-49.75</ele>
        <time>2022-06-26T08:32:37Z</time>
      </trkpt>
      <trkpt lat="47.68726" lon="6.04285">
        <ele>-49.75</ele>
        <time>2022-06-26T08:32:39Z</time>
      </trkpt>
      <trkpt lat="47.68573" lon="6.04133">
        <ele>-49.75</ele>
        <time>2022-06-26T08:33:08Z</time>
      </trkpt>
      <trkpt lat="47.69168" lon="6.04018">
        <ele>-49.75</ele>
        <time>2022-06-26T08:36:21Z</time>
      </trkpt>
      <trkpt lat="47.69178" lon="6.03989">
        <ele>-49.75</ele>
        <time>2022-06-26T08:36:23Z</time>
      </trkpt>
      <trkpt lat="47.69337" lon="6.0427">
        <ele>-49.75</ele>
        <time>2022-06-26T08:37:11Z</time>
      </trkpt>
      <trkpt lat="47.69785" lon="6.04201">
        <ele>-49.75</ele>
        <time>2022-06-26T08:38:44Z</time>
      </trkpt>
      <trkpt lat="47.7004" lon="6.04223">
        <ele>-49.75</ele>
        <time>2022-06-26T08:39:41Z</time>
      </trkpt>
      <trkpt lat="47.70926" lon="6.0379">
        <ele>-49.75</ele>
        <time>2022-06-26T08:43:07Z</time>
      </trkpt>
      <trkpt lat="47.71216" lon="6.03108">
        <ele>-49.75</ele>
        <time>2022-06-26T08:45:57Z</time>
      </trkpt>
      <trkpt lat="47.71465" lon="6.02883">
        <ele>-49.75</ele>
        <time>2022-06-26T08:47:21Z</time>
      </trkpt>
      <trkpt lat="47.71607" lon="6.04181">
        <ele>99.05</ele>
        <time>2022-06-26T09:02:03Z</time>
      </trkpt>
      <trkpt lat="47.71585" lon="6.04188">
        <ele>198.43</ele>
        <time>2022-06-26T09:02:05Z</time>
      </trkpt>
      <trkpt lat="47.71566" lon="6.04199">
        <ele>237.57</ele>
        <time>2022-06-26T09:02:11Z</time>
      </trkpt>
      <trkpt lat="47.71545" lon="6.04199">
        <ele>232.03</ele>
        <time>2022-06-26T09:02:15Z</time>
      </trkpt>
      <trkpt lat="47.71519" lon="6.04209">
        <ele>240.09</ele>
        <time>2022-06-26T09:02:21Z</time>
      </trkpt>
      <trkpt lat="47.71502" lon="6.04215">
        <ele>244.68</ele>
        <time>2022-06-26T09:02:24Z</time>
      </trkpt>
      <trkpt lat="47.7148" lon="6.04224">
        <ele>243.27</ele>
        <time>2022-06-26T09:02:28Z</time>
      </trkpt>
      <trkpt lat="47.71457" lon="6.04229">
        <ele>243.04</ele>
        <time>2022-06-26T09:02:32Z</time>
      </trkpt>
      <trkpt lat="47.71439" lon="6.04231">
        <ele>243.29</ele>
        <time>2022-06-26T09:02:35Z</time>
      </trkpt>
      <trkpt lat="47.7142" lon="6.04234">
        <ele>243.41</ele>
        <time>2022-06-26T09:02:38Z</time>
      </trkpt>
      <trkpt lat="47.714" lon="6.04238">
        <ele>243.18</ele>
        <time>2022-06-26T09:02:41Z</time>
      </trkpt>
      <trkpt lat="47.71385" lon="6.04261">
        <ele>241.53</ele>
        <time>2022-06-26T09:02:45Z</time>
      </trkpt>
      <trkpt lat="47.71392" lon="6.04294">
        <ele>240.72</ele>
        <time>2022-06-26T09:02:49Z</time>
      </trkpt>
      <trkpt lat="47.71395" lon="6.04328">
        <ele>239.75</ele>
        <time>2022-06-26T09:02:53Z</time>
      </trkpt>
      <trkpt lat="47.71394" lon="6.04359">
        <ele>239.64</ele>
        <time>2022-06-26T09:02:56Z</time>
      </trkpt>
      <trkpt lat="47.71393" lon="6.04392">
        <ele>238.75</ele>
        <time>2022-06-26T09:02:59Z</time>
      </trkpt>
      <trkpt lat="47.71388" lon="6.04425">
        <ele>239.28</ele>
        <time>2022-06-26T09:03:02Z</time>
      </trkpt>
      <trkpt lat="47.71383" lon="6.04453">
        <ele>239.04</ele>
        <time>2022-06-26T09:03:05Z</time>
      </trkpt>
      <trkpt lat="47.71377" lon="6.0448">
        <ele>238.17</ele>
        <time>2022-06-26T09:03:08Z</time>
      </trkpt>
      <trkpt lat="47.71366" lon="6.04506">
        <ele>237.93</ele>
        <time>2022-06-26T09:03:11Z</time>
      </trkpt>
      <trkpt lat="47.71351" lon="6.04523">
        <ele>236.92</ele>
        <time>2022-06-26T09:03:13Z</time>
      </trkpt>
      <trkpt lat="47.71326" lon="6.04521">
        <ele>236.71</ele>
        <time>2022-06-26T09:03:17Z</time>
      </trkpt>
      <trkpt lat="47.71305" lon="6.04511">
        <ele>237.24</ele>
        <time>2022-06-26T09:03:21Z</time>
      </trkpt>
      <trkpt lat="47.71283" lon="6.0451">
        <ele>236.83</ele>
        <time>2022-06-26T09:03:25Z</time>
      </trkpt>
      <trkpt lat="47.71267" lon="6.04496">
        <ele>236.01</ele>
        <time>2022-06-26T09:03:30Z</time>
      </trkpt>
      <trkpt lat="47.71248" lon="6.04497">
        <ele>233.12</ele>
        <time>2022-06-26T09:03:39Z</time>
      </trkpt>
      <trkpt lat="47.71229" lon="6.0451">
        <ele>232.28</ele>
        <time>2022-06-26T09:03:46Z</time>
      </trkpt>
      <trkpt lat="47.71212" lon="6.04516">
        <ele>231.92</ele>
        <time>2022-06-26T09:03:52Z</time>
      </trkpt>
      <trkpt lat="47.71193" lon="6.04514">
        <ele>231.09</ele>
        <time>2022-06-26T09:04:00Z</time>
      </trkpt>
      <trkpt lat="47.71174" lon="6.04521">
        <ele>230.75</ele>
        <time>2022-06-26T09:04:05Z</time>
      </trkpt>
      <trkpt lat="47.71157" lon="6.04529">
        <ele>231</ele>
        <time>2022-06-26T09:04:09Z</time>
      </trkpt>
      <trkpt lat="47.71138" lon="6.04539">
        <ele>231.37</ele>
        <time>2022-06-26T09:04:13Z</time>
      </trkpt>
      <trkpt lat="47.71119" lon="6.0455">
        <ele>230.49</ele>
        <time>2022-06-26T09:04:19Z</time>
      </trkpt>
      <trkpt lat="47.71099" lon="6.04555">
        <ele>229.28</ele>
        <time>2022-06-26T09:04:23Z</time>
      </trkpt>
      <trkpt lat="47.71076" lon="6.04552">
        <ele>227.98</ele>
        <time>2022-06-26T09:04:27Z</time>
      </trkpt>
      <trkpt lat="47.71056" lon="6.04551">
        <ele>227.62</ele>
        <time>2022-06-26T09:04:31Z</time>
      </trkpt>
      <trkpt lat="47.71037" lon="6.04555">
        <ele>228.59</ele>
        <time>2022-06-26T09:04:35Z</time>
      </trkpt>
      <trkpt lat="47.71019" lon="6.04558">
        <ele>230.19</ele>
        <time>2022-06-26T09:04:40Z</time>
      </trkpt>
      <trkpt lat="47.71" lon="6.04557">
        <ele>230.53</ele>
        <time>2022-06-26T09:04:46Z</time>
      </trkpt>
      <trkpt lat="47.70982" lon="6.04547">
        <ele>230.31</ele>
        <time>2022-06-26T09:04:52Z</time>
      </trkpt>
      <trkpt lat="47.70963" lon="6.04538">
        <ele>229.03</ele>
        <time>2022-06-26T09:04:57Z</time>
      </trkpt>
      <trkpt lat="47.70943" lon="6.04541">
        <ele>229.53</ele>
        <time>2022-06-26T09:05:01Z</time>
      </trkpt>
      <trkpt lat="47.70923" lon="6.04546">
        <ele>230.47</ele>
        <time>2022-06-26T09:05:05Z</time>
      </trkpt>
      <trkpt lat="47.70905" lon="6.04553">
        <ele>231.47</ele>
        <time>2022-06-26T09:05:09Z</time>
      </trkpt>
      <trkpt lat="47.70886" lon="6.04561">
        <ele>231.5</ele>
        <time>2022-06-26T09:05:14Z</time>
      </trkpt>
      <trkpt lat="47.7087" lon="6.04575">
        <ele>231.65</ele>
        <time>2022-06-26T09:05:19Z</time>
      </trkpt>
      <trkpt lat="47.70862" lon="6.046">
        <ele>233.18</ele>
        <time>2022-06-26T09:05:25Z</time>
      </trkpt>
      <trkpt lat="47.7086" lon="6.04628">
        <ele>236.81</ele>
        <time>2022-06-26T09:05:33Z</time>
      </trkpt>
      <trkpt lat="47.70856" lon="6.04655">
        <ele>237.64</ele>
        <time>2022-06-26T09:05:39Z</time>
      </trkpt>
      <trkpt lat="47.70854" lon="6.04684">
        <ele>240.39</ele>
        <time>2022-06-26T09:05:50Z</time>
      </trkpt>
      <trkpt lat="47.70851" lon="6.04712">
        <ele>242.53</ele>
        <time>2022-06-26T09:06:00Z</time>
      </trkpt>
      <trkpt lat="47.70846" lon="6.0474">
        <ele>244.65</ele>
        <time>2022-06-26T09:06:08Z</time>
      </trkpt>
      <trkpt lat="47.70845" lon="6.04767">
        <ele>245.47</ele>
        <time>2022-06-26T09:06:21Z</time>
      </trkpt>
      <trkpt lat="47.70845" lon="6.04795">
        <ele>245.74</ele>
        <time>2022-06-26T09:06:32Z</time>
      </trkpt>
      <trkpt lat="47.70843" lon="6.04823">
        <ele>247.57</ele>
        <time>2022-06-26T09:06:43Z</time>
      </trkpt>
      <trkpt lat="47.70841" lon="6.04852">
        <ele>247.91</ele>
        <time>2022-06-26T09:06:56Z</time>
      </trkpt>
      <trkpt lat="47.70837" lon="6.04879">
        <ele>249.24</ele>
        <time>2022-06-26T09:07:05Z</time>
      </trkpt>
      <trkpt lat="47.70836" lon="6.04907">
        <ele>251.33</ele>
        <time>2022-06-26T09:07:18Z</time>
      </trkpt>
      <trkpt lat="47.70834" lon="6.04935">
        <ele>254.15</ele>
        <time>2022-06-26T09:07:30Z</time>
      </trkpt>
      <trkpt lat="47.70835" lon="6.04962">
        <ele>256.67</ele>
        <time>2022-06-26T09:07:47Z</time>
      </trkpt>
      <trkpt lat="47.70831" lon="6.04989">
        <ele>258.68</ele>
        <time>2022-06-26T09:07:57Z</time>
      </trkpt>
      <trkpt lat="47.70829" lon="6.05016">
        <ele>259.82</ele>
        <time>2022-06-26T09:08:09Z</time>
      </trkpt>
      <trkpt lat="47.70824" lon="6.05043">
        <ele>261.05</ele>
        <time>2022-06-26T09:08:17Z</time>
      </trkpt>
      <trkpt lat="47.7082" lon="6.05072">
        <ele>264.08</ele>
        <time>2022-06-26T09:08:29Z</time>
      </trkpt>
      <trkpt lat="47.70817" lon="6.051">
        <ele>265.86</ele>
        <time>2022-06-26T09:08:39Z</time>
      </trkpt>
      <trkpt lat="47.70816" lon="6.05131">
        <ele>265.37</ele>
        <time>2022-06-26T09:08:48Z</time>
      </trkpt>
      <trkpt lat="47.70813" lon="6.0516">
        <ele>265.73</ele>
        <time>2022-06-26T09:08:54Z</time>
      </trkpt>
      <trkpt lat="47.70811" lon="6.05189">
        <ele>266.01</ele>
        <time>2022-06-26T09:08:58Z</time>
      </trkpt>
      <trkpt lat="47.70809" lon="6.0522">
        <ele>265.42</ele>
        <time>2022-06-26T09:09:02Z</time>
      </trkpt>
      <trkpt lat="47.70807" lon="6.05253">
        <ele>264.36</ele>
        <time>2022-06-26T09:09:06Z</time>
      </trkpt>
      <trkpt lat="47.70803" lon="6.05285">
        <ele>264.12</ele>
        <time>2022-06-26T09:09:11Z</time>
      </trkpt>
      <trkpt lat="47.708" lon="6.05316">
        <ele>264.08</ele>
        <time>2022-06-26T09:09:16Z</time>
      </trkpt>
      <trkpt lat="47.708" lon="6.05343">
        <ele>263.21</ele>
        <time>2022-06-26T09:09:21Z</time>
      </trkpt>
      <trkpt lat="47.70798" lon="6.0537">
        <ele>263.52</ele>
        <time>2022-06-26T09:09:26Z</time>
      </trkpt>
      <trkpt lat="47.70794" lon="6.05399">
        <ele>264.09</ele>
        <time>2022-06-26T09:09:31Z</time>
      </trkpt>
      <trkpt lat="47.70801" lon="6.05424">
        <ele>264.87</ele>
        <time>2022-06-26T09:09:36Z</time>
      </trkpt>
      <trkpt lat="47.70819" lon="6.05435">
        <ele>266.28</ele>
        <time>2022-06-26T09:09:42Z</time>
      </trkpt>
      <trkpt lat="47.70837" lon="6.05445">
        <ele>267.92</ele>
        <time>2022-06-26T09:09:51Z</time>
      </trkpt>
      <trkpt lat="47.70858" lon="6.05458">
        <ele>266.9</ele>
        <time>2022-06-26T09:10:06Z</time>
      </trkpt>
      <trkpt lat="47.70875" lon="6.05468">
        <ele>267.93</ele>
        <time>2022-06-26T09:10:16Z</time>
      </trkpt>
      <trkpt lat="47.70893" lon="6.05474">
        <ele>267.36</ele>
        <time>2022-06-26T09:10:22Z</time>
      </trkpt>
      <trkpt lat="47.70912" lon="6.0548">
        <ele>270.19</ele>
        <time>2022-06-26T09:10:39Z</time>
      </trkpt>
      <trkpt lat="47.70932" lon="6.05487">
        <ele>271.75</ele>
        <time>2022-06-26T09:10:53Z</time>
      </trkpt>
      <trkpt lat="47.7095" lon="6.05495">
        <ele>272.29</ele>
        <time>2022-06-26T09:11:02Z</time>
      </trkpt>
      <trkpt lat="47.70969" lon="6.055">
        <ele>274.68</ele>
        <time>2022-06-26T09:11:11Z</time>
      </trkpt>
      <trkpt lat="47.70987" lon="6.05509">
        <ele>274.5</ele>
        <time>2022-06-26T09:11:24Z</time>
      </trkpt>
      <trkpt lat="47.71007" lon="6.05512">
        <ele>273.4</ele>
        <time>2022-06-26T09:11:35Z</time>
      </trkpt>
      <trkpt lat="47.71025" lon="6.05514">
        <ele>272.16</ele>
        <time>2022-06-26T09:11:46Z</time>
      </trkpt>
      <trkpt lat="47.71044" lon="6.05522">
        <ele>272.25</ele>
        <time>2022-06-26T09:11:57Z</time>
      </trkpt>
      <trkpt lat="47.71062" lon="6.05527">
        <ele>272.54</ele>
        <time>2022-06-26T09:12:07Z</time>
      </trkpt>
      <trkpt lat="47.71078" lon="6.05514">
        <ele>272.64</ele>
        <time>2022-06-26T09:12:14Z</time>
      </trkpt>
      <trkpt lat="47.71098" lon="6.05515">
        <ele>272.55</ele>
        <time>2022-06-26T09:12:21Z</time>
      </trkpt>
      <trkpt lat="47.71116" lon="6.05507">
        <ele>272.46</ele>
        <time>2022-06-26T09:12:27Z</time>
      </trkpt>
      <trkpt lat="47.71135" lon="6.05506">
        <ele>272.15</ele>
        <time>2022-06-26T09:12:36Z</time>
      </trkpt>
      <trkpt lat="47.71154" lon="6.05504">
        <ele>271.63</ele>
        <time>2022-06-26T09:12:43Z</time>
      </trkpt>
      <trkpt lat="47.71173" lon="6.05515">
        <ele>269.5</ele>
        <time>2022-06-26T09:12:49Z</time>
      </trkpt>
      <trkpt lat="47.71192" lon="6.05525">
        <ele>268.63</ele>
        <time>2022-06-26T09:12:52Z</time>
      </trkpt>
      <trkpt lat="47.71212" lon="6.05533">
        <ele>267.29</ele>
        <time>2022-06-26T09:12:56Z</time>
      </trkpt>
      <trkpt lat="47.71225" lon="6.05564">
        <ele>266.17</ele>
        <time>2022-06-26T09:13:00Z</time>
      </trkpt>
      <trkpt lat="47.71237" lon="6.05584">
        <ele>265.15</ele>
        <time>2022-06-26T09:13:02Z</time>
      </trkpt>
      <trkpt lat="47.71255" lon="6.05602">
        <ele>263.98</ele>
        <time>2022-06-26T09:13:04Z</time>
      </trkpt>
      <trkpt lat="47.7127" lon="6.05621">
        <ele>262.09</ele>
        <time>2022-06-26T09:13:07Z</time>
      </trkpt>
      <trkpt lat="47.71286" lon="6.05634">
        <ele>260.64</ele>
        <time>2022-06-26T09:13:11Z</time>
      </trkpt>
      <trkpt lat="47.71293" lon="6.05609">
        <ele>260.4</ele>
        <time>2022-06-26T09:13:17Z</time>
      </trkpt>
      <trkpt lat="47.71302" lon="6.05584">
        <ele>261.82</ele>
        <time>2022-06-26T09:13:22Z</time>
      </trkpt>
      <trkpt lat="47.71321" lon="6.05591">
        <ele>262.81</ele>
        <time>2022-06-26T09:13:29Z</time>
      </trkpt>
      <trkpt lat="47.71339" lon="6.05596">
        <ele>263.57</ele>
        <time>2022-06-26T09:13:34Z</time>
      </trkpt>
      <trkpt lat="47.71357" lon="6.05607">
        <ele>264.24</ele>
        <time>2022-06-26T09:13:40Z</time>
      </trkpt>
      <trkpt lat="47.71376" lon="6.05609">
        <ele>263.35</ele>
        <time>2022-06-26T09:13:46Z</time>
      </trkpt>
      <trkpt lat="47.71391" lon="6.05627">
        <ele>263.77</ele>
        <time>2022-06-26T09:13:52Z</time>
      </trkpt>
      <trkpt lat="47.71411" lon="6.05642">
        <ele>263.43</ele>
        <time>2022-06-26T09:13:56Z</time>
      </trkpt>
      <trkpt lat="47.71431" lon="6.05658">
        <ele>263.45</ele>
        <time>2022-06-26T09:14:00Z</time>
      </trkpt>
      <trkpt lat="47.71448" lon="6.05674">
        <ele>263.82</ele>
        <time>2022-06-26T09:14:05Z</time>
      </trkpt>
      <trkpt lat="47.71465" lon="6.05688">
        <ele>263.59</ele>
        <time>2022-06-26T09:14:09Z</time>
      </trkpt>
      <trkpt lat="47.71481" lon="6.05704">
        <ele>263.32</ele>
        <time>2022-06-26T09:14:13Z</time>
      </trkpt>
      <trkpt lat="47.71498" lon="6.05715">
        <ele>262.16</ele>
        <time>2022-06-26T09:14:17Z</time>
      </trkpt>
      <trkpt lat="47.71517" lon="6.05723">
        <ele>261.23</ele>
        <time>2022-06-26T09:14:22Z</time>
      </trkpt>
      <trkpt lat="47.71536" lon="6.05728">
        <ele>261.23</ele>
        <time>2022-06-26T09:14:27Z</time>
      </trkpt>
      <trkpt lat="47.71554" lon="6.05731">
        <ele>260.25</ele>
        <time>2022-06-26T09:14:32Z</time>
      </trkpt>
      <trkpt lat="47.71574" lon="6.05733">
        <ele>260.5</ele>
        <time>2022-06-26T09:14:38Z</time>
      </trkpt>
      <trkpt lat="47.71593" lon="6.05733">
        <ele>260.04</ele>
        <time>2022-06-26T09:14:44Z</time>
      </trkpt>
      <trkpt lat="47.7161" lon="6.05729">
        <ele>260.87</ele>
        <time>2022-06-26T09:14:50Z</time>
      </trkpt>
      <trkpt lat="47.71626" lon="6.05745">
        <ele>260.78</ele>
        <time>2022-06-26T09:14:56Z</time>
      </trkpt>
      <trkpt lat="47.71645" lon="6.05743">
        <ele>261.44</ele>
        <time>2022-06-26T09:15:01Z</time>
      </trkpt>
      <trkpt lat="47.71663" lon="6.05737">
        <ele>261.66</ele>
        <time>2022-06-26T09:15:08Z</time>
      </trkpt>
      <trkpt lat="47.71684" lon="6.05738">
        <ele>261.25</ele>
        <time>2022-06-26T09:15:12Z</time>
      </trkpt>
      <trkpt lat="47.71702" lon="6.05741">
        <ele>261.77</ele>
        <time>2022-06-26T09:15:18Z</time>
      </trkpt>
      <trkpt lat="47.7172" lon="6.05748">
        <ele>261.85</ele>
        <time>2022-06-26T09:15:25Z</time>
      </trkpt>
      <trkpt lat="47.71736" lon="6.05763">
        <ele>264.25</ele>
        <time>2022-06-26T09:15:32Z</time>
      </trkpt>
      <trkpt lat="47.71755" lon="6.05777">
        <ele>263.4</ele>
        <time>2022-06-26T09:15:39Z</time>
      </trkpt>
      <trkpt lat="47.71774" lon="6.05774">
        <ele>263.74</ele>
        <time>2022-06-26T09:15:42Z</time>
      </trkpt>
      <trkpt lat="47.71807" lon="6.05793">
        <ele>264.85</ele>
        <time>2022-06-26T09:15:54Z</time>
      </trkpt>
      <trkpt lat="47.71815" lon="6.05823">
        <ele>263.91</ele>
        <time>2022-06-26T09:16:00Z</time>
      </trkpt>
      <trkpt lat="47.71827" lon="6.05844">
        <ele>263.46</ele>
        <time>2022-06-26T09:16:04Z</time>
      </trkpt>
      <trkpt lat="47.71846" lon="6.05846">
        <ele>263.01</ele>
        <time>2022-06-26T09:16:13Z</time>
      </trkpt>
      <trkpt lat="47.71862" lon="6.0586">
        <ele>261.97</ele>
        <time>2022-06-26T09:16:16Z</time>
      </trkpt>
      <trkpt lat="47.71882" lon="6.05874">
        <ele>262.35</ele>
        <time>2022-06-26T09:16:20Z</time>
      </trkpt>
      <trkpt lat="47.71903" lon="6.0589">
        <ele>264.45</ele>
        <time>2022-06-26T09:16:34Z</time>
      </trkpt>
      <trkpt lat="47.71925" lon="6.05901">
        <ele>264.29</ele>
        <time>2022-06-26T09:16:38Z</time>
      </trkpt>
      <trkpt lat="47.71946" lon="6.05909">
        <ele>264.82</ele>
        <time>2022-06-26T09:16:41Z</time>
      </trkpt>
      <trkpt lat="47.71966" lon="6.05913">
        <ele>265.37</ele>
        <time>2022-06-26T09:16:46Z</time>
      </trkpt>
      <trkpt lat="47.71982" lon="6.05931">
        <ele>265.57</ele>
        <time>2022-06-26T09:16:59Z</time>
      </trkpt>
      <trkpt lat="47.71998" lon="6.05946">
        <ele>265.03</ele>
        <time>2022-06-26T09:17:04Z</time>
      </trkpt>
      <trkpt lat="47.72018" lon="6.05959">
        <ele>264.49</ele>
        <time>2022-06-26T09:17:10Z</time>
      </trkpt>
      <trkpt lat="47.72037" lon="6.0597">
        <ele>264.1</ele>
        <time>2022-06-26T09:17:15Z</time>
      </trkpt>
      <trkpt lat="47.72052" lon="6.05985">
        <ele>263.85</ele>
        <time>2022-06-26T09:17:20Z</time>
      </trkpt>
      <trkpt lat="47.72072" lon="6.06">
        <ele>262.9</ele>
        <time>2022-06-26T09:17:26Z</time>
      </trkpt>
      <trkpt lat="47.7209" lon="6.06025">
        <ele>263.29</ele>
        <time>2022-06-26T09:17:29Z</time>
      </trkpt>
      <trkpt lat="47.72104" lon="6.06042">
        <ele>263.84</ele>
        <time>2022-06-26T09:17:32Z</time>
      </trkpt>
      <trkpt lat="47.72121" lon="6.06032">
        <ele>265.29</ele>
        <time>2022-06-26T09:17:40Z</time>
      </trkpt>
      <trkpt lat="47.72136" lon="6.06049">
        <ele>266.71</ele>
        <time>2022-06-26T09:17:43Z</time>
      </trkpt>
      <trkpt lat="47.7215" lon="6.06067">
        <ele>267.44</ele>
        <time>2022-06-26T09:17:45Z</time>
      </trkpt>
      <trkpt lat="47.72164" lon="6.06086">
        <ele>267.17</ele>
        <time>2022-06-26T09:17:47Z</time>
      </trkpt>
      <trkpt lat="47.72182" lon="6.06102">
        <ele>265.83</ele>
        <time>2022-06-26T09:17:52Z</time>
      </trkpt>
      <trkpt lat="47.72196" lon="6.06122">
        <ele>263.85</ele>
        <time>2022-06-26T09:17:58Z</time>
      </trkpt>
      <trkpt lat="47.72208" lon="6.06142">
        <ele>262.96</ele>
        <time>2022-06-26T09:18:02Z</time>
      </trkpt>
      <trkpt lat="47.72227" lon="6.06135">
        <ele>261.16</ele>
        <time>2022-06-26T09:18:10Z</time>
      </trkpt>
      <trkpt lat="47.72256" lon="6.06158">
        <ele>254.6</ele>
        <time>2022-06-26T09:18:36Z</time>
      </trkpt>
      <trkpt lat="47.72273" lon="6.06149">
        <ele>253.55</ele>
        <time>2022-06-26T09:18:48Z</time>
      </trkpt>
      <trkpt lat="47.72293" lon="6.06143">
        <ele>253.31</ele>
        <time>2022-06-26T09:18:55Z</time>
      </trkpt>
      <trkpt lat="47.72314" lon="6.06146">
        <ele>252.4</ele>
        <time>2022-06-26T09:19:02Z</time>
      </trkpt>
      <trkpt lat="47.72334" lon="6.06147">
        <ele>251.99</ele>
        <time>2022-06-26T09:19:08Z</time>
      </trkpt>
      <trkpt lat="47.72352" lon="6.06151">
        <ele>252</ele>
        <time>2022-06-26T09:19:13Z</time>
      </trkpt>
      <trkpt lat="47.72371" lon="6.06155">
        <ele>252.73</ele>
        <time>2022-06-26T09:19:19Z</time>
      </trkpt>
      <trkpt lat="47.7239" lon="6.06159">
        <ele>253.55</ele>
        <time>2022-06-26T09:19:25Z</time>
      </trkpt>
      <trkpt lat="47.72408" lon="6.06169">
        <ele>253.54</ele>
        <time>2022-06-26T09:19:32Z</time>
      </trkpt>
      <trkpt lat="47.72426" lon="6.06179">
        <ele>254.13</ele>
        <time>2022-06-26T09:19:37Z</time>
      </trkpt>
      <trkpt lat="47.72445" lon="6.06188">
        <ele>255.7</ele>
        <time>2022-06-26T09:19:45Z</time>
      </trkpt>
      <trkpt lat="47.72465" lon="6.06198">
        <ele>255.68</ele>
        <time>2022-06-26T09:19:50Z</time>
      </trkpt>
      <trkpt lat="47.72483" lon="6.06211">
        <ele>255.79</ele>
        <time>2022-06-26T09:19:56Z</time>
      </trkpt>
      <trkpt lat="47.725" lon="6.06224">
        <ele>255.6</ele>
        <time>2022-06-26T09:20:01Z</time>
      </trkpt>
      <trkpt lat="47.72517" lon="6.06235">
        <ele>254.97</ele>
        <time>2022-06-26T09:20:06Z</time>
      </trkpt>
      <trkpt lat="47.72534" lon="6.06246">
        <ele>254.99</ele>
        <time>2022-06-26T09:20:11Z</time>
      </trkpt>
      <trkpt lat="47.72553" lon="6.06256">
        <ele>255.88</ele>
        <time>2022-06-26T09:20:16Z</time>
      </trkpt>
      <trkpt lat="47.72572" lon="6.06265">
        <ele>256.29</ele>
        <time>2022-06-26T09:20:23Z</time>
      </trkpt>
      <trkpt lat="47.72586" lon="6.06281">
        <ele>257.33</ele>
        <time>2022-06-26T09:20:28Z</time>
      </trkpt>
      <trkpt lat="47.72603" lon="6.0629">
        <ele>257.71</ele>
        <time>2022-06-26T09:20:33Z</time>
      </trkpt>
      <trkpt lat="47.72622" lon="6.06298">
        <ele>258.21</ele>
        <time>2022-06-26T09:20:42Z</time>
      </trkpt>
      <trkpt lat="47.7264" lon="6.06309">
        <ele>259.37</ele>
        <time>2022-06-26T09:20:50Z</time>
      </trkpt>
      <trkpt lat="47.72657" lon="6.06333">
        <ele>259.53</ele>
        <time>2022-06-26T09:20:54Z</time>
      </trkpt>
      <trkpt lat="47.72674" lon="6.06354">
        <ele>258.81</ele>
        <time>2022-06-26T09:20:57Z</time>
      </trkpt>
      <trkpt lat="47.72689" lon="6.06379">
        <ele>258.93</ele>
        <time>2022-06-26T09:21:02Z</time>
      </trkpt>
      <trkpt lat="47.72706" lon="6.06397">
        <ele>257.32</ele>
        <time>2022-06-26T09:21:07Z</time>
      </trkpt>
      <trkpt lat="47.72724" lon="6.06406">
        <ele>257.31</ele>
        <time>2022-06-26T09:21:12Z</time>
      </trkpt>
      <trkpt lat="47.72744" lon="6.06404">
        <ele>256.99</ele>
        <time>2022-06-26T09:21:22Z</time>
      </trkpt>
      <trkpt lat="47.72764" lon="6.06399">
        <ele>257.62</ele>
        <time>2022-06-26T09:21:26Z</time>
      </trkpt>
      <trkpt lat="47.72785" lon="6.06392">
        <ele>257.71</ele>
        <time>2022-06-26T09:21:30Z</time>
      </trkpt>
      <trkpt lat="47.72802" lon="6.06375">
        <ele>256.18</ele>
        <time>2022-06-26T09:21:33Z</time>
      </trkpt>
      <trkpt lat="47.72819" lon="6.06362">
        <ele>254.4</ele>
        <time>2022-06-26T09:21:37Z</time>
      </trkpt>
      <trkpt lat="47.72834" lon="6.06342">
        <ele>252.16</ele>
        <time>2022-06-26T09:21:42Z</time>
      </trkpt>
      <trkpt lat="47.72847" lon="6.06321">
        <ele>250.83</ele>
        <time>2022-06-26T09:21:49Z</time>
      </trkpt>
      <trkpt lat="47.72862" lon="6.06299">
        <ele>250.44</ele>
        <time>2022-06-26T09:21:58Z</time>
      </trkpt>
      <trkpt lat="47.72869" lon="6.0627">
        <ele>250.37</ele>
        <time>2022-06-26T09:22:04Z</time>
      </trkpt>
      <trkpt lat="47.72881" lon="6.06247">
        <ele>250.55</ele>
        <time>2022-06-26T09:22:11Z</time>
      </trkpt>
      <trkpt lat="47.72883" lon="6.06215">
        <ele>251.57</ele>
        <time>2022-06-26T09:22:16Z</time>
      </trkpt>
      <trkpt lat="47.72897" lon="6.06198">
        <ele>251.65</ele>
        <time>2022-06-26T09:22:23Z</time>
      </trkpt>
      <trkpt lat="47.72916" lon="6.06183">
        <ele>250.7</ele>
        <time>2022-06-26T09:22:30Z</time>
      </trkpt>
      <trkpt lat="47.72932" lon="6.06171">
        <ele>249.43</ele>
        <time>2022-06-26T09:22:37Z</time>
      </trkpt>
      <trkpt lat="47.72951" lon="6.06163">
        <ele>249.39</ele>
        <time>2022-06-26T09:22:44Z</time>
      </trkpt>
      <trkpt lat="47.72969" lon="6.06168">
        <ele>247.67</ele>
        <time>2022-06-26T09:22:49Z</time>
      </trkpt>
      <trkpt lat="47.72987" lon="6.06165">
        <ele>248.02</ele>
        <time>2022-06-26T09:22:56Z</time>
      </trkpt>
      <trkpt lat="47.73005" lon="6.0616">
        <ele>248.85</ele>
        <time>2022-06-26T09:23:05Z</time>
      </trkpt>
      <trkpt lat="47.73024" lon="6.06157">
        <ele>250.73</ele>
        <time>2022-06-26T09:23:15Z</time>
      </trkpt>
      <trkpt lat="47.73042" lon="6.06156">
        <ele>254.82</ele>
        <time>2022-06-26T09:23:27Z</time>
      </trkpt>
      <trkpt lat="47.73061" lon="6.06155">
        <ele>256.44</ele>
        <time>2022-06-26T09:23:38Z</time>
      </trkpt>
      <trkpt lat="47.7308" lon="6.0616">
        <ele>255.4</ele>
        <time>2022-06-26T09:23:48Z</time>
      </trkpt>
      <trkpt lat="47.73099" lon="6.06166">
        <ele>253.95</ele>
        <time>2022-06-26T09:23:58Z</time>
      </trkpt>
      <trkpt lat="47.73117" lon="6.06179">
        <ele>252.92</ele>
        <time>2022-06-26T09:24:07Z</time>
      </trkpt>
      <trkpt lat="47.73134" lon="6.06188">
        <ele>253.5</ele>
        <time>2022-06-26T09:24:16Z</time>
      </trkpt>
      <trkpt lat="47.73149" lon="6.06205">
        <ele>253.98</ele>
        <time>2022-06-26T09:24:26Z</time>
      </trkpt>
      <trkpt lat="47.73133" lon="6.06222">
        <ele>253.75</ele>
        <time>2022-06-26T09:24:31Z</time>
      </trkpt>
      <trkpt lat="47.73283" lon="6.06279">
        <ele>253.14</ele>
        <time>2022-06-26T09:25:01Z</time>
      </trkpt>
      <trkpt lat="47.7331" lon="6.06299">
        <ele>253.15</ele>
        <time>2022-06-26T09:25:09Z</time>
      </trkpt>
      <trkpt lat="47.7333" lon="6.06312">
        <ele>253.44</ele>
        <time>2022-06-26T09:25:13Z</time>
      </trkpt>
      <trkpt lat="47.73346" lon="6.06325">
        <ele>253.69</ele>
        <time>2022-06-26T09:25:18Z</time>
      </trkpt>
      <trkpt lat="47.73364" lon="6.06339">
        <ele>254.28</ele>
        <time>2022-06-26T09:25:25Z</time>
      </trkpt>
      <trkpt lat="47.73383" lon="6.06345">
        <ele>253.81</ele>
        <time>2022-06-26T09:25:29Z</time>
      </trkpt>
      <trkpt lat="47.73404" lon="6.06353">
        <ele>253.8</ele>
        <time>2022-06-26T09:25:33Z</time>
      </trkpt>
      <trkpt lat="47.73424" lon="6.06361">
        <ele>254.18</ele>
        <time>2022-06-26T09:25:36Z</time>
      </trkpt>
      <trkpt lat="47.73444" lon="6.06362">
        <ele>255.1</ele>
        <time>2022-06-26T09:25:40Z</time>
      </trkpt>
      <trkpt lat="47.73464" lon="6.06364">
        <ele>255.28</ele>
        <time>2022-06-26T09:25:45Z</time>
      </trkpt>
      <trkpt lat="47.73482" lon="6.06375">
        <ele>256.13</ele>
        <time>2022-06-26T09:25:51Z</time>
      </trkpt>
      <trkpt lat="47.73501" lon="6.06374">
        <ele>254.87</ele>
        <time>2022-06-26T09:26:00Z</time>
      </trkpt>
      <trkpt lat="47.73519" lon="6.06362">
        <ele>255.18</ele>
        <time>2022-06-26T09:26:46Z</time>
      </trkpt>
      <trkpt lat="47.73537" lon="6.06369">
        <ele>255.59</ele>
        <time>2022-06-26T09:26:52Z</time>
      </trkpt>
      <trkpt lat="47.73548" lon="6.06392">
        <ele>255.79</ele>
        <time>2022-06-26T09:26:57Z</time>
      </trkpt>
      <trkpt lat="47.73558" lon="6.06418">
        <ele>256.18</ele>
        <time>2022-06-26T09:27:02Z</time>
      </trkpt>
      <trkpt lat="47.73567" lon="6.06447">
        <ele>255.41</ele>
        <time>2022-06-26T09:27:08Z</time>
      </trkpt>
      <trkpt lat="47.73578" lon="6.06472">
        <ele>255.3</ele>
        <time>2022-06-26T09:27:13Z</time>
      </trkpt>
      <trkpt lat="47.73587" lon="6.06501">
        <ele>254.35</ele>
        <time>2022-06-26T09:27:19Z</time>
      </trkpt>
      <trkpt lat="47.736" lon="6.06519">
        <ele>253.6</ele>
        <time>2022-06-26T09:27:23Z</time>
      </trkpt>
      <trkpt lat="47.73611" lon="6.0654">
        <ele>252.29</ele>
        <time>2022-06-26T09:27:28Z</time>
      </trkpt>
      <trkpt lat="47.7363" lon="6.06554">
        <ele>252.27</ele>
        <time>2022-06-26T09:27:34Z</time>
      </trkpt>
      <trkpt lat="47.73625" lon="6.06581">
        <ele>252.94</ele>
        <time>2022-06-26T09:27:40Z</time>
      </trkpt>
      <trkpt lat="47.73612" lon="6.066">
        <ele>253.23</ele>
        <time>2022-06-26T09:27:45Z</time>
      </trkpt>
      <trkpt lat="47.73593" lon="6.06611">
        <ele>253.49</ele>
        <time>2022-06-26T09:27:51Z</time>
      </trkpt>
      <trkpt lat="47.73582" lon="6.06634">
        <ele>254.74</ele>
        <time>2022-06-26T09:27:58Z</time>
      </trkpt>
      <trkpt lat="47.73568" lon="6.06652">
        <ele>254.82</ele>
        <time>2022-06-26T09:28:04Z</time>
      </trkpt>
      <trkpt lat="47.73556" lon="6.06673">
        <ele>255.35</ele>
        <time>2022-06-26T09:28:11Z</time>
      </trkpt>
      <trkpt lat="47.73542" lon="6.06694">
        <ele>256.55</ele>
        <time>2022-06-26T09:28:18Z</time>
      </trkpt>
      <trkpt lat="47.73524" lon="6.06713">
        <ele>257.85</ele>
        <time>2022-06-26T09:28:24Z</time>
      </trkpt>
      <trkpt lat="47.73512" lon="6.06733">
        <ele>258.45</ele>
        <time>2022-06-26T09:28:29Z</time>
      </trkpt>
      <trkpt lat="47.73494" lon="6.06751">
        <ele>261.18</ele>
        <time>2022-06-26T09:28:37Z</time>
      </trkpt>
      <trkpt lat="47.7348" lon="6.06769">
        <ele>261.75</ele>
        <time>2022-06-26T09:28:42Z</time>
      </trkpt>
      <trkpt lat="47.73463" lon="6.06787">
        <ele>262.68</ele>
        <time>2022-06-26T09:28:47Z</time>
      </trkpt>
      <trkpt lat="47.73449" lon="6.06806">
        <ele>265.19</ele>
        <time>2022-06-26T09:28:51Z</time>
      </trkpt>
      <trkpt lat="47.73433" lon="6.06828">
        <ele>266.5</ele>
        <time>2022-06-26T09:28:56Z</time>
      </trkpt>
      <trkpt lat="47.73421" lon="6.06849">
        <ele>266.75</ele>
        <time>2022-06-26T09:29:00Z</time>
      </trkpt>
      <trkpt lat="47.73406" lon="6.06874">
        <ele>266.77</ele>
        <time>2022-06-26T09:29:04Z</time>
      </trkpt>
      <trkpt lat="47.73399" lon="6.06899">
        <ele>267.9</ele>
        <time>2022-06-26T09:29:09Z</time>
      </trkpt>
      <trkpt lat="47.73391" lon="6.06928">
        <ele>267.67</ele>
        <time>2022-06-26T09:29:13Z</time>
      </trkpt>
      <trkpt lat="47.73381" lon="6.06956">
        <ele>267.24</ele>
        <time>2022-06-26T09:29:18Z</time>
      </trkpt>
      <trkpt lat="47.73377" lon="6.06986">
        <ele>267.09</ele>
        <time>2022-06-26T09:29:22Z</time>
      </trkpt>
      <trkpt lat="47.73381" lon="6.07016">
        <ele>267.31</ele>
        <time>2022-06-26T09:29:26Z</time>
      </trkpt>
      <trkpt lat="47.73378" lon="6.07044">
        <ele>267</ele>
        <time>2022-06-26T09:29:29Z</time>
      </trkpt>
      <trkpt lat="47.73376" lon="6.07081">
        <ele>266.58</ele>
        <time>2022-06-26T09:29:32Z</time>
      </trkpt>
      <trkpt lat="47.73375" lon="6.07109">
        <ele>265.15</ele>
        <time>2022-06-26T09:29:35Z</time>
      </trkpt>
      <trkpt lat="47.73365" lon="6.07137">
        <ele>263.61</ele>
        <time>2022-06-26T09:29:39Z</time>
      </trkpt>
      <trkpt lat="47.73355" lon="6.07162">
        <ele>262.41</ele>
        <time>2022-06-26T09:29:42Z</time>
      </trkpt>
      <trkpt lat="47.73349" lon="6.0719">
        <ele>261.38</ele>
        <time>2022-06-26T09:29:47Z</time>
      </trkpt>
      <trkpt lat="47.73349" lon="6.07223">
        <ele>261.26</ele>
        <time>2022-06-26T09:29:52Z</time>
      </trkpt>
      <trkpt lat="47.73348" lon="6.07251">
        <ele>260.87</ele>
        <time>2022-06-26T09:29:57Z</time>
      </trkpt>
      <trkpt lat="47.73343" lon="6.07277">
        <ele>260.48</ele>
        <time>2022-06-26T09:30:01Z</time>
      </trkpt>
      <trkpt lat="47.73345" lon="6.07304">
        <ele>260.82</ele>
        <time>2022-06-26T09:30:05Z</time>
      </trkpt>
      <trkpt lat="47.73346" lon="6.07333">
        <ele>261.02</ele>
        <time>2022-06-26T09:30:09Z</time>
      </trkpt>
      <trkpt lat="47.73334" lon="6.07364">
        <ele>261.2</ele>
        <time>2022-06-26T09:30:13Z</time>
      </trkpt>
      <trkpt lat="47.73314" lon="6.0739">
        <ele>261.51</ele>
        <time>2022-06-26T09:30:17Z</time>
      </trkpt>
      <trkpt lat="47.73311" lon="6.0742">
        <ele>261.66</ele>
        <time>2022-06-26T09:30:21Z</time>
      </trkpt>
      <trkpt lat="47.73314" lon="6.07453">
        <ele>261.27</ele>
        <time>2022-06-26T09:30:26Z</time>
      </trkpt>
      <trkpt lat="47.73311" lon="6.07481">
        <ele>261.2</ele>
        <time>2022-06-26T09:30:30Z</time>
      </trkpt>
      <trkpt lat="47.73312" lon="6.07514">
        <ele>261.37</ele>
        <time>2022-06-26T09:30:35Z</time>
      </trkpt>
      <trkpt lat="47.73312" lon="6.07546">
        <ele>261.83</ele>
        <time>2022-06-26T09:30:40Z</time>
      </trkpt>
      <trkpt lat="47.73301" lon="6.07575">
        <ele>261.48</ele>
        <time>2022-06-26T09:30:45Z</time>
      </trkpt>
      <trkpt lat="47.73298" lon="6.07601">
        <ele>261.69</ele>
        <time>2022-06-26T09:30:51Z</time>
      </trkpt>
      <trkpt lat="47.73289" lon="6.07625">
        <ele>261.52</ele>
        <time>2022-06-26T09:30:57Z</time>
      </trkpt>
      <trkpt lat="47.73275" lon="6.07647">
        <ele>261.66</ele>
        <time>2022-06-26T09:31:04Z</time>
      </trkpt>
      <trkpt lat="47.73259" lon="6.07662">
        <ele>261.04</ele>
        <time>2022-06-26T09:31:10Z</time>
      </trkpt>
      <trkpt lat="47.73239" lon="6.07645">
        <ele>260.45</ele>
        <time>2022-06-26T09:31:27Z</time>
      </trkpt>
      <trkpt lat="47.73221" lon="6.07632">
        <ele>259.5</ele>
        <time>2022-06-26T09:31:31Z</time>
      </trkpt>
      <trkpt lat="47.73198" lon="6.07621">
        <ele>259.97</ele>
        <time>2022-06-26T09:31:35Z</time>
      </trkpt>
      <trkpt lat="47.73181" lon="6.07608">
        <ele>260.29</ele>
        <time>2022-06-26T09:31:38Z</time>
      </trkpt>
      <trkpt lat="47.73159" lon="6.07598">
        <ele>260.97</ele>
        <time>2022-06-26T09:31:42Z</time>
      </trkpt>
      <trkpt lat="47.73127" lon="6.07593">
        <ele>261.46</ele>
        <time>2022-06-26T09:31:51Z</time>
      </trkpt>
      <trkpt lat="47.73112" lon="6.07568">
        <ele>262.2</ele>
        <time>2022-06-26T09:31:54Z</time>
      </trkpt>
      <trkpt lat="47.73098" lon="6.07544">
        <ele>263.09</ele>
        <time>2022-06-26T09:31:57Z</time>
      </trkpt>
      <trkpt lat="47.73117" lon="6.07529">
        <ele>265.84</ele>
        <time>2022-06-26T09:32:05Z</time>
      </trkpt>
      <trkpt lat="47.73118" lon="6.07499">
        <ele>266.45</ele>
        <time>2022-06-26T09:32:09Z</time>
      </trkpt>
      <trkpt lat="47.73116" lon="6.07468">
        <ele>265.08</ele>
        <time>2022-06-26T09:32:13Z</time>
      </trkpt>
      <trkpt lat="47.73112" lon="6.07439">
        <ele>265.26</ele>
        <time>2022-06-26T09:32:19Z</time>
      </trkpt>
      <trkpt lat="47.73092" lon="6.07418">
        <ele>267.01</ele>
        <time>2022-06-26T09:32:27Z</time>
      </trkpt>
      <trkpt lat="47.7308" lon="6.07393">
        <ele>268.63</ele>
        <time>2022-06-26T09:32:32Z</time>
      </trkpt>
      <trkpt lat="47.73057" lon="6.07367">
        <ele>270.27</ele>
        <time>2022-06-26T09:32:42Z</time>
      </trkpt>
      <trkpt lat="47.73041" lon="6.07346">
        <ele>270.61</ele>
        <time>2022-06-26T09:32:44Z</time>
      </trkpt>
      <trkpt lat="47.73025" lon="6.0732">
        <ele>270.63</ele>
        <time>2022-06-26T09:32:47Z</time>
      </trkpt>
      <trkpt lat="47.73014" lon="6.07298">
        <ele>270.81</ele>
        <time>2022-06-26T09:32:51Z</time>
      </trkpt>
      <trkpt lat="47.73014" lon="6.07268">
        <ele>270.44</ele>
        <time>2022-06-26T09:32:57Z</time>
      </trkpt>
      <trkpt lat="47.73031" lon="6.07255">
        <ele>269.92</ele>
        <time>2022-06-26T09:33:02Z</time>
      </trkpt>
      <trkpt lat="47.73042" lon="6.0723">
        <ele>268.73</ele>
        <time>2022-06-26T09:33:07Z</time>
      </trkpt>
      <trkpt lat="47.73043" lon="6.07197">
        <ele>266.56</ele>
        <time>2022-06-26T09:33:11Z</time>
      </trkpt>
      <trkpt lat="47.73056" lon="6.07174">
        <ele>263.5</ele>
        <time>2022-06-26T09:33:17Z</time>
      </trkpt>
      <trkpt lat="47.73061" lon="6.07147">
        <ele>263.56</ele>
        <time>2022-06-26T09:33:22Z</time>
      </trkpt>
      <trkpt lat="47.73063" lon="6.07116">
        <ele>264.22</ele>
        <time>2022-06-26T09:33:28Z</time>
      </trkpt>
      <trkpt lat="47.73069" lon="6.07087">
        <ele>263.53</ele>
        <time>2022-06-26T09:33:34Z</time>
      </trkpt>
      <trkpt lat="47.73073" lon="6.07058">
        <ele>262.68</ele>
        <time>2022-06-26T09:33:40Z</time>
      </trkpt>
      <trkpt lat="47.73078" lon="6.07028">
        <ele>261.22</ele>
        <time>2022-06-26T09:33:46Z</time>
      </trkpt>
      <trkpt lat="47.73085" lon="6.06999">
        <ele>260.75</ele>
        <time>2022-06-26T09:33:51Z</time>
      </trkpt>
      <trkpt lat="47.73091" lon="6.06973">
        <ele>260.79</ele>
        <time>2022-06-26T09:33:55Z</time>
      </trkpt>
      <trkpt lat="47.73105" lon="6.0695">
        <ele>260.56</ele>
        <time>2022-06-26T09:34:00Z</time>
      </trkpt>
      <trkpt lat="47.73111" lon="6.0692">
        <ele>260.56</ele>
        <time>2022-06-26T09:34:05Z</time>
      </trkpt>
      <trkpt lat="47.7311" lon="6.0689">
        <ele>260.72</ele>
        <time>2022-06-26T09:34:10Z</time>
      </trkpt>
      <trkpt lat="47.73106" lon="6.0686">
        <ele>260.45</ele>
        <time>2022-06-26T09:34:15Z</time>
      </trkpt>
      <trkpt lat="47.73099" lon="6.06833">
        <ele>260.74</ele>
        <time>2022-06-26T09:34:20Z</time>
      </trkpt>
      <trkpt lat="47.73088" lon="6.06812">
        <ele>261.51</ele>
        <time>2022-06-26T09:34:25Z</time>
      </trkpt>
      <trkpt lat="47.73072" lon="6.0679">
        <ele>261.44</ele>
        <time>2022-06-26T09:34:30Z</time>
      </trkpt>
      <trkpt lat="47.73055" lon="6.06774">
        <ele>260.78</ele>
        <time>2022-06-26T09:34:35Z</time>
      </trkpt>
      <trkpt lat="47.73036" lon="6.06773">
        <ele>261.28</ele>
        <time>2022-06-26T09:34:39Z</time>
      </trkpt>
      <trkpt lat="47.73016" lon="6.06771">
        <ele>261.62</ele>
        <time>2022-06-26T09:34:43Z</time>
      </trkpt>
      <trkpt lat="47.72997" lon="6.0677">
        <ele>260.9</ele>
        <time>2022-06-26T09:34:47Z</time>
      </trkpt>
      <trkpt lat="47.72976" lon="6.06772">
        <ele>260.3</ele>
        <time>2022-06-26T09:34:51Z</time>
      </trkpt>
      <trkpt lat="47.7296" lon="6.06787">
        <ele>260.29</ele>
        <time>2022-06-26T09:34:57Z</time>
      </trkpt>
      <trkpt lat="47.72944" lon="6.06803">
        <ele>259.48</ele>
        <time>2022-06-26T09:35:01Z</time>
      </trkpt>
      <trkpt lat="47.7293" lon="6.06826">
        <ele>258.91</ele>
        <time>2022-06-26T09:35:05Z</time>
      </trkpt>
      <trkpt lat="47.72914" lon="6.06849">
        <ele>258.52</ele>
        <time>2022-06-26T09:35:09Z</time>
      </trkpt>
      <trkpt lat="47.72899" lon="6.06864">
        <ele>258.8</ele>
        <time>2022-06-26T09:35:12Z</time>
      </trkpt>
      <trkpt lat="47.7288" lon="6.06887">
        <ele>257.65</ele>
        <time>2022-06-26T09:35:16Z</time>
      </trkpt>
      <trkpt lat="47.72865" lon="6.06902">
        <ele>256.38</ele>
        <time>2022-06-26T09:35:18Z</time>
      </trkpt>
      <trkpt lat="47.72849" lon="6.06919">
        <ele>254.93</ele>
        <time>2022-06-26T09:35:20Z</time>
      </trkpt>
      <trkpt lat="47.72834" lon="6.06934">
        <ele>253.55</ele>
        <time>2022-06-26T09:35:22Z</time>
      </trkpt>
      <trkpt lat="47.72817" lon="6.06944">
        <ele>252.25</ele>
        <time>2022-06-26T09:35:24Z</time>
      </trkpt>
      <trkpt lat="47.72793" lon="6.06954">
        <ele>251.1</ele>
        <time>2022-06-26T09:35:27Z</time>
      </trkpt>
      <trkpt lat="47.72773" lon="6.06958">
        <ele>250.62</ele>
        <time>2022-06-26T09:35:30Z</time>
      </trkpt>
      <trkpt lat="47.72753" lon="6.06961">
        <ele>250.32</ele>
        <time>2022-06-26T09:35:34Z</time>
      </trkpt>
      <trkpt lat="47.72734" lon="6.06968">
        <ele>251.42</ele>
        <time>2022-06-26T09:35:38Z</time>
      </trkpt>
      <trkpt lat="47.72715" lon="6.06977">
        <ele>252.61</ele>
        <time>2022-06-26T09:35:42Z</time>
      </trkpt>
      <trkpt lat="47.72695" lon="6.0698">
        <ele>253.56</ele>
        <time>2022-06-26T09:35:46Z</time>
      </trkpt>
      <trkpt lat="47.72675" lon="6.06988">
        <ele>255.86</ele>
        <time>2022-06-26T09:35:50Z</time>
      </trkpt>
      <trkpt lat="47.7266" lon="6.07007">
        <ele>256.5</ele>
        <time>2022-06-26T09:35:54Z</time>
      </trkpt>
      <trkpt lat="47.72631" lon="6.06999">
        <ele>256.43</ele>
        <time>2022-06-26T09:35:57Z</time>
      </trkpt>
      <trkpt lat="47.7261" lon="6.07001">
        <ele>256.37</ele>
        <time>2022-06-26T09:36:00Z</time>
      </trkpt>
      <trkpt lat="47.72587" lon="6.06992">
        <ele>256.39</ele>
        <time>2022-06-26T09:36:03Z</time>
      </trkpt>
      <trkpt lat="47.72568" lon="6.06984">
        <ele>255.23</ele>
        <time>2022-06-26T09:36:06Z</time>
      </trkpt>
      <trkpt lat="47.72547" lon="6.06976">
        <ele>254.2</ele>
        <time>2022-06-26T09:36:09Z</time>
      </trkpt>
      <trkpt lat="47.72524" lon="6.06965">
        <ele>254.04</ele>
        <time>2022-06-26T09:36:11Z</time>
      </trkpt>
      <trkpt lat="47.72507" lon="6.06975">
        <ele>253.34</ele>
        <time>2022-06-26T09:36:14Z</time>
      </trkpt>
      <trkpt lat="47.72502" lon="6.07003">
        <ele>252.37</ele>
        <time>2022-06-26T09:36:17Z</time>
      </trkpt>
      <trkpt lat="47.72485" lon="6.07007">
        <ele>251.95</ele>
        <time>2022-06-26T09:36:20Z</time>
      </trkpt>
      <trkpt lat="47.72463" lon="6.07014">
        <ele>252.54</ele>
        <time>2022-06-26T09:36:24Z</time>
      </trkpt>
      <trkpt lat="47.72444" lon="6.07022">
        <ele>254.03</ele>
        <time>2022-06-26T09:36:28Z</time>
      </trkpt>
      <trkpt lat="47.72426" lon="6.07031">
        <ele>254.91</ele>
        <time>2022-06-26T09:36:33Z</time>
      </trkpt>
      <trkpt lat="47.72407" lon="6.07036">
        <ele>255.67</ele>
        <time>2022-06-26T09:36:38Z</time>
      </trkpt>
      <trkpt lat="47.72388" lon="6.07041">
        <ele>256</ele>
        <time>2022-06-26T09:36:44Z</time>
      </trkpt>
      <trkpt lat="47.7237" lon="6.07046">
        <ele>255.64</ele>
        <time>2022-06-26T09:36:50Z</time>
      </trkpt>
      <trkpt lat="47.72351" lon="6.07055">
        <ele>255.51</ele>
        <time>2022-06-26T09:36:55Z</time>
      </trkpt>
      <trkpt lat="47.72333" lon="6.07066">
        <ele>256.75</ele>
        <time>2022-06-26T09:37:01Z</time>
      </trkpt>
      <trkpt lat="47.72315" lon="6.07076">
        <ele>255.2</ele>
        <time>2022-06-26T09:37:08Z</time>
      </trkpt>
      <trkpt lat="47.72295" lon="6.07079">
        <ele>257.4</ele>
        <time>2022-06-26T09:37:15Z</time>
      </trkpt>
      <trkpt lat="47.72277" lon="6.07091">
        <ele>257.44</ele>
        <time>2022-06-26T09:37:22Z</time>
      </trkpt>
      <trkpt lat="47.72259" lon="6.07098">
        <ele>258.1</ele>
        <time>2022-06-26T09:37:30Z</time>
      </trkpt>
      <trkpt lat="47.7224" lon="6.07107">
        <ele>260.13</ele>
        <time>2022-06-26T09:37:38Z</time>
      </trkpt>
      <trkpt lat="47.72222" lon="6.07118">
        <ele>261.75</ele>
        <time>2022-06-26T09:37:46Z</time>
      </trkpt>
      <trkpt lat="47.72206" lon="6.07133">
        <ele>262.33</ele>
        <time>2022-06-26T09:37:52Z</time>
      </trkpt>
      <trkpt lat="47.72188" lon="6.07149">
        <ele>262.92</ele>
        <time>2022-06-26T09:37:57Z</time>
      </trkpt>
      <trkpt lat="47.72169" lon="6.07161">
        <ele>262.34</ele>
        <time>2022-06-26T09:38:01Z</time>
      </trkpt>
      <trkpt lat="47.72149" lon="6.07176">
        <ele>261.51</ele>
        <time>2022-06-26T09:38:05Z</time>
      </trkpt>
      <trkpt lat="47.72127" lon="6.0719">
        <ele>261.75</ele>
        <time>2022-06-26T09:38:09Z</time>
      </trkpt>
      <trkpt lat="47.72107" lon="6.07202">
        <ele>261.36</ele>
        <time>2022-06-26T09:38:13Z</time>
      </trkpt>
      <trkpt lat="47.7209" lon="6.07213">
        <ele>261.58</ele>
        <time>2022-06-26T09:38:17Z</time>
      </trkpt>
      <trkpt lat="47.7207" lon="6.07225">
        <ele>261.3</ele>
        <time>2022-06-26T09:38:22Z</time>
      </trkpt>
      <trkpt lat="47.72052" lon="6.07223">
        <ele>259.97</ele>
        <time>2022-06-26T09:38:29Z</time>
      </trkpt>
      <trkpt lat="47.72034" lon="6.07227">
        <ele>259.48</ele>
        <time>2022-06-26T09:38:34Z</time>
      </trkpt>
      <trkpt lat="47.72015" lon="6.0723">
        <ele>260.73</ele>
        <time>2022-06-26T09:38:40Z</time>
      </trkpt>
      <trkpt lat="47.71993" lon="6.07226">
        <ele>261.88</ele>
        <time>2022-06-26T09:38:46Z</time>
      </trkpt>
      <trkpt lat="47.71972" lon="6.07227">
        <ele>261.8</ele>
        <time>2022-06-26T09:38:52Z</time>
      </trkpt>
      <trkpt lat="47.71953" lon="6.07233">
        <ele>261.47</ele>
        <time>2022-06-26T09:38:56Z</time>
      </trkpt>
      <trkpt lat="47.71932" lon="6.07238">
        <ele>261.83</ele>
        <time>2022-06-26T09:39:03Z</time>
      </trkpt>
      <trkpt lat="47.71913" lon="6.07253">
        <ele>263.26</ele>
        <time>2022-06-26T09:39:08Z</time>
      </trkpt>
      <trkpt lat="47.71895" lon="6.07269">
        <ele>265.34</ele>
        <time>2022-06-26T09:39:13Z</time>
      </trkpt>
      <trkpt lat="47.7188" lon="6.07286">
        <ele>266.74</ele>
        <time>2022-06-26T09:39:18Z</time>
      </trkpt>
      <trkpt lat="47.71864" lon="6.07299">
        <ele>266.86</ele>
        <time>2022-06-26T09:39:23Z</time>
      </trkpt>
      <trkpt lat="47.71845" lon="6.07312">
        <ele>268.44</ele>
        <time>2022-06-26T09:39:28Z</time>
      </trkpt>
      <trkpt lat="47.71828" lon="6.07328">
        <ele>270.09</ele>
        <time>2022-06-26T09:39:32Z</time>
      </trkpt>
      <trkpt lat="47.71808" lon="6.07338">
        <ele>271.89</ele>
        <time>2022-06-26T09:39:37Z</time>
      </trkpt>
      <trkpt lat="47.71788" lon="6.07331">
        <ele>271.87</ele>
        <time>2022-06-26T09:39:40Z</time>
      </trkpt>
      <trkpt lat="47.71769" lon="6.07319">
        <ele>271.08</ele>
        <time>2022-06-26T09:39:43Z</time>
      </trkpt>
      <trkpt lat="47.71751" lon="6.07309">
        <ele>270.12</ele>
        <time>2022-06-26T09:39:46Z</time>
      </trkpt>
      <trkpt lat="47.71729" lon="6.07309">
        <ele>270.21</ele>
        <time>2022-06-26T09:39:51Z</time>
      </trkpt>
      <trkpt lat="47.7171" lon="6.07315">
        <ele>270.4</ele>
        <time>2022-06-26T09:39:57Z</time>
      </trkpt>
      <trkpt lat="47.71693" lon="6.07326">
        <ele>270.99</ele>
        <time>2022-06-26T09:40:04Z</time>
      </trkpt>
      <trkpt lat="47.71699" lon="6.07352">
        <ele>271.33</ele>
        <time>2022-06-26T09:40:08Z</time>
      </trkpt>
      <trkpt lat="47.71686" lon="6.07372">
        <ele>273.72</ele>
        <time>2022-06-26T09:40:18Z</time>
      </trkpt>
      <trkpt lat="47.71667" lon="6.07381">
        <ele>274.54</ele>
        <time>2022-06-26T09:40:28Z</time>
      </trkpt>
      <trkpt lat="47.71651" lon="6.07394">
        <ele>275.37</ele>
        <time>2022-06-26T09:40:35Z</time>
      </trkpt>
      <trkpt lat="47.71633" lon="6.07407">
        <ele>277.22</ele>
        <time>2022-06-26T09:40:42Z</time>
      </trkpt>
      <trkpt lat="47.71614" lon="6.07414">
        <ele>279.08</ele>
        <time>2022-06-26T09:40:50Z</time>
      </trkpt>
      <trkpt lat="47.71596" lon="6.07411">
        <ele>280.14</ele>
        <time>2022-06-26T09:40:56Z</time>
      </trkpt>
      <trkpt lat="47.7158" lon="6.07396">
        <ele>279.08</ele>
        <time>2022-06-26T09:41:04Z</time>
      </trkpt>
      <trkpt lat="47.7156" lon="6.07389">
        <ele>278.97</ele>
        <time>2022-06-26T09:41:11Z</time>
      </trkpt>
      <trkpt lat="47.71541" lon="6.07384">
        <ele>279.4</ele>
        <time>2022-06-26T09:41:19Z</time>
      </trkpt>
      <trkpt lat="47.71519" lon="6.07388">
        <ele>280.39</ele>
        <time>2022-06-26T09:41:24Z</time>
      </trkpt>
      <trkpt lat="47.71499" lon="6.07392">
        <ele>280.9</ele>
        <time>2022-06-26T09:41:31Z</time>
      </trkpt>
      <trkpt lat="47.71481" lon="6.07384">
        <ele>280.98</ele>
        <time>2022-06-26T09:41:43Z</time>
      </trkpt>
      <trkpt lat="47.71473" lon="6.0736">
        <ele>281.35</ele>
        <time>2022-06-26T09:41:49Z</time>
      </trkpt>
      <trkpt lat="47.71456" lon="6.0734">
        <ele>281.24</ele>
        <time>2022-06-26T09:41:55Z</time>
      </trkpt>
      <trkpt lat="47.71438" lon="6.07328">
        <ele>281.54</ele>
        <time>2022-06-26T09:42:00Z</time>
      </trkpt>
      <trkpt lat="47.71418" lon="6.0733">
        <ele>281.94</ele>
        <time>2022-06-26T09:42:19Z</time>
      </trkpt>
      <trkpt lat="47.71397" lon="6.0733">
        <ele>282.28</ele>
        <time>2022-06-26T09:42:24Z</time>
      </trkpt>
      <trkpt lat="47.71377" lon="6.07331">
        <ele>282.82</ele>
        <time>2022-06-26T09:42:28Z</time>
      </trkpt>
      <trkpt lat="47.71355" lon="6.07328">
        <ele>282.69</ele>
        <time>2022-06-26T09:42:32Z</time>
      </trkpt>
      <trkpt lat="47.71335" lon="6.0732">
        <ele>282.94</ele>
        <time>2022-06-26T09:42:35Z</time>
      </trkpt>
      <trkpt lat="47.71317" lon="6.0731">
        <ele>282.89</ele>
        <time>2022-06-26T09:42:38Z</time>
      </trkpt>
      <trkpt lat="47.713" lon="6.073">
        <ele>282.68</ele>
        <time>2022-06-26T09:42:41Z</time>
      </trkpt>
      <trkpt lat="47.71283" lon="6.07283">
        <ele>281.69</ele>
        <time>2022-06-26T09:42:44Z</time>
      </trkpt>
      <trkpt lat="47.71264" lon="6.07258">
        <ele>281.16</ele>
        <time>2022-06-26T09:42:47Z</time>
      </trkpt>
      <trkpt lat="47.71246" lon="6.07231">
        <ele>280.55</ele>
        <time>2022-06-26T09:42:50Z</time>
      </trkpt>
      <trkpt lat="47.71235" lon="6.072">
        <ele>280.09</ele>
        <time>2022-06-26T09:42:53Z</time>
      </trkpt>
      <trkpt lat="47.71229" lon="6.07174">
        <ele>279.44</ele>
        <time>2022-06-26T09:42:55Z</time>
      </trkpt>
      <trkpt lat="47.71223" lon="6.07148">
        <ele>279.02</ele>
        <time>2022-06-26T09:42:57Z</time>
      </trkpt>
      <trkpt lat="47.71211" lon="6.07114">
        <ele>279.81</ele>
        <time>2022-06-26T09:43:00Z</time>
      </trkpt>
      <trkpt lat="47.71196" lon="6.07086">
        <ele>279.67</ele>
        <time>2022-06-26T09:43:03Z</time>
      </trkpt>
      <trkpt lat="47.71177" lon="6.07063">
        <ele>278.29</ele>
        <time>2022-06-26T09:43:07Z</time>
      </trkpt>
      <trkpt lat="47.71161" lon="6.07046">
        <ele>277.96</ele>
        <time>2022-06-26T09:43:10Z</time>
      </trkpt>
      <trkpt lat="47.71144" lon="6.07025">
        <ele>277.06</ele>
        <time>2022-06-26T09:43:13Z</time>
      </trkpt>
      <trkpt lat="47.71124" lon="6.07006">
        <ele>276.9</ele>
        <time>2022-06-26T09:43:16Z</time>
      </trkpt>
      <trkpt lat="47.71103" lon="6.06986">
        <ele>276.47</ele>
        <time>2022-06-26T09:43:19Z</time>
      </trkpt>
      <trkpt lat="47.71077" lon="6.06971">
        <ele>274.73</ele>
        <time>2022-06-26T09:43:22Z</time>
      </trkpt>
      <trkpt lat="47.71059" lon="6.06964">
        <ele>273.7</ele>
        <time>2022-06-26T09:43:24Z</time>
      </trkpt>
      <trkpt lat="47.71033" lon="6.06953">
        <ele>273.49</ele>
        <time>2022-06-26T09:43:27Z</time>
      </trkpt>
      <trkpt lat="47.71009" lon="6.06944">
        <ele>273.52</ele>
        <time>2022-06-26T09:43:30Z</time>
      </trkpt>
      <trkpt lat="47.70985" lon="6.06937">
        <ele>273.58</ele>
        <time>2022-06-26T09:43:33Z</time>
      </trkpt>
      <trkpt lat="47.70963" lon="6.06927">
        <ele>272.78</ele>
        <time>2022-06-26T09:43:36Z</time>
      </trkpt>
      <trkpt lat="47.70943" lon="6.06915">
        <ele>271.63</ele>
        <time>2022-06-26T09:43:39Z</time>
      </trkpt>
      <trkpt lat="47.70924" lon="6.06905">
        <ele>270.31</ele>
        <time>2022-06-26T09:43:42Z</time>
      </trkpt>
      <trkpt lat="47.70906" lon="6.06893">
        <ele>269.52</ele>
        <time>2022-06-26T09:43:45Z</time>
      </trkpt>
      <trkpt lat="47.70888" lon="6.06879">
        <ele>268.4</ele>
        <time>2022-06-26T09:43:48Z</time>
      </trkpt>
      <trkpt lat="47.7087" lon="6.06861">
        <ele>267.24</ele>
        <time>2022-06-26T09:43:51Z</time>
      </trkpt>
      <trkpt lat="47.70854" lon="6.06845">
        <ele>266.18</ele>
        <time>2022-06-26T09:43:54Z</time>
      </trkpt>
      <trkpt lat="47.70837" lon="6.06832">
        <ele>265.74</ele>
        <time>2022-06-26T09:43:57Z</time>
      </trkpt>
      <trkpt lat="47.70821" lon="6.06816">
        <ele>266.35</ele>
        <time>2022-06-26T09:44:00Z</time>
      </trkpt>
      <trkpt lat="47.70806" lon="6.068">
        <ele>266.36</ele>
        <time>2022-06-26T09:44:03Z</time>
      </trkpt>
      <trkpt lat="47.70787" lon="6.06779">
        <ele>266.91</ele>
        <time>2022-06-26T09:44:07Z</time>
      </trkpt>
      <trkpt lat="47.70772" lon="6.06761">
        <ele>267.01</ele>
        <time>2022-06-26T09:44:10Z</time>
      </trkpt>
      <trkpt lat="47.70756" lon="6.06744">
        <ele>266.75</ele>
        <time>2022-06-26T09:44:13Z</time>
      </trkpt>
      <trkpt lat="47.70735" lon="6.06729">
        <ele>265.61</ele>
        <time>2022-06-26T09:44:16Z</time>
      </trkpt>
      <trkpt lat="47.70713" lon="6.06716">
        <ele>264.67</ele>
        <time>2022-06-26T09:44:19Z</time>
      </trkpt>
      <trkpt lat="47.70691" lon="6.06704">
        <ele>263.73</ele>
        <time>2022-06-26T09:44:22Z</time>
      </trkpt>
      <trkpt lat="47.70668" lon="6.06688">
        <ele>263.51</ele>
        <time>2022-06-26T09:44:25Z</time>
      </trkpt>
      <trkpt lat="47.70648" lon="6.06668">
        <ele>263</ele>
        <time>2022-06-26T09:44:28Z</time>
      </trkpt>
      <trkpt lat="47.70628" lon="6.06646">
        <ele>262.73</ele>
        <time>2022-06-26T09:44:31Z</time>
      </trkpt>
      <trkpt lat="47.70613" lon="6.06623">
        <ele>262.02</ele>
        <time>2022-06-26T09:44:34Z</time>
      </trkpt>
      <trkpt lat="47.70598" lon="6.066">
        <ele>261.1</ele>
        <time>2022-06-26T09:44:37Z</time>
      </trkpt>
      <trkpt lat="47.70584" lon="6.06578">
        <ele>260.72</ele>
        <time>2022-06-26T09:44:40Z</time>
      </trkpt>
      <trkpt lat="47.70569" lon="6.06559">
        <ele>260.32</ele>
        <time>2022-06-26T09:44:43Z</time>
      </trkpt>
      <trkpt lat="47.70554" lon="6.0654">
        <ele>259.88</ele>
        <time>2022-06-26T09:44:46Z</time>
      </trkpt>
      <trkpt lat="47.70539" lon="6.06522">
        <ele>260.27</ele>
        <time>2022-06-26T09:44:49Z</time>
      </trkpt>
      <trkpt lat="47.70525" lon="6.06504">
        <ele>261.23</ele>
        <time>2022-06-26T09:44:52Z</time>
      </trkpt>
      <trkpt lat="47.70509" lon="6.06485">
        <ele>261.86</ele>
        <time>2022-06-26T09:44:55Z</time>
      </trkpt>
      <trkpt lat="47.70496" lon="6.06466">
        <ele>263.05</ele>
        <time>2022-06-26T09:44:58Z</time>
      </trkpt>
      <trkpt lat="47.7048" lon="6.06447">
        <ele>263.53</ele>
        <time>2022-06-26T09:45:01Z</time>
      </trkpt>
      <trkpt lat="47.70465" lon="6.06429">
        <ele>263.72</ele>
        <time>2022-06-26T09:45:04Z</time>
      </trkpt>
      <trkpt lat="47.70448" lon="6.06408">
        <ele>264.96</ele>
        <time>2022-06-26T09:45:08Z</time>
      </trkpt>
      <trkpt lat="47.70429" lon="6.0639">
        <ele>266.02</ele>
        <time>2022-06-26T09:45:12Z</time>
      </trkpt>
      <trkpt lat="47.70412" lon="6.06378">
        <ele>266.37</ele>
        <time>2022-06-26T09:45:15Z</time>
      </trkpt>
      <trkpt lat="47.70392" lon="6.06362">
        <ele>267.99</ele>
        <time>2022-06-26T09:45:20Z</time>
      </trkpt>
      <trkpt lat="47.70376" lon="6.06343">
        <ele>268.84</ele>
        <time>2022-06-26T09:45:23Z</time>
      </trkpt>
      <trkpt lat="47.70361" lon="6.06321">
        <ele>269.42</ele>
        <time>2022-06-26T09:45:25Z</time>
      </trkpt>
      <trkpt lat="47.70343" lon="6.06297">
        <ele>269.76</ele>
        <time>2022-06-26T09:45:28Z</time>
      </trkpt>
      <trkpt lat="47.70328" lon="6.06278">
        <ele>270.35</ele>
        <time>2022-06-26T09:45:31Z</time>
      </trkpt>
      <trkpt lat="47.70311" lon="6.0626">
        <ele>270.6</ele>
        <time>2022-06-26T09:45:34Z</time>
      </trkpt>
      <trkpt lat="47.70294" lon="6.06239">
        <ele>270.49</ele>
        <time>2022-06-26T09:45:37Z</time>
      </trkpt>
      <trkpt lat="47.70275" lon="6.06212">
        <ele>270.01</ele>
        <time>2022-06-26T09:45:40Z</time>
      </trkpt>
      <trkpt lat="47.70258" lon="6.06197">
        <ele>270.3</ele>
        <time>2022-06-26T09:45:46Z</time>
      </trkpt>
      <trkpt lat="47.70239" lon="6.06178">
        <ele>271.09</ele>
        <time>2022-06-26T09:45:51Z</time>
      </trkpt>
      <trkpt lat="47.70219" lon="6.06149">
        <ele>270.17</ele>
        <time>2022-06-26T09:45:54Z</time>
      </trkpt>
      <trkpt lat="47.70203" lon="6.06129">
        <ele>269.08</ele>
        <time>2022-06-26T09:45:56Z</time>
      </trkpt>
      <trkpt lat="47.70183" lon="6.06119">
        <ele>268.58</ele>
        <time>2022-06-26T09:46:02Z</time>
      </trkpt>
      <trkpt lat="47.70164" lon="6.06096">
        <ele>268.56</ele>
        <time>2022-06-26T09:46:04Z</time>
      </trkpt>
      <trkpt lat="47.70146" lon="6.06069">
        <ele>269.3</ele>
        <time>2022-06-26T09:46:06Z</time>
      </trkpt>
      <trkpt lat="47.70125" lon="6.06038">
        <ele>270.29</ele>
        <time>2022-06-26T09:46:08Z</time>
      </trkpt>
      <trkpt lat="47.70108" lon="6.0601">
        <ele>271.26</ele>
        <time>2022-06-26T09:46:10Z</time>
      </trkpt>
      <trkpt lat="47.70087" lon="6.05975">
        <ele>272.33</ele>
        <time>2022-06-26T09:46:12Z</time>
      </trkpt>
      <trkpt lat="47.70074" lon="6.05955">
        <ele>273.47</ele>
        <time>2022-06-26T09:46:14Z</time>
      </trkpt>
      <trkpt lat="47.70058" lon="6.05937">
        <ele>275.07</ele>
        <time>2022-06-26T09:46:17Z</time>
      </trkpt>
      <trkpt lat="47.70038" lon="6.05922">
        <ele>276.21</ele>
        <time>2022-06-26T09:46:22Z</time>
      </trkpt>
      <trkpt lat="47.70022" lon="6.05936">
        <ele>276.93</ele>
        <time>2022-06-26T09:46:29Z</time>
      </trkpt>
      <trkpt lat="47.70004" lon="6.0593">
        <ele>275.41</ele>
        <time>2022-06-26T09:46:34Z</time>
      </trkpt>
      <trkpt lat="47.69981" lon="6.05924">
        <ele>274.72</ele>
        <time>2022-06-26T09:46:38Z</time>
      </trkpt>
      <trkpt lat="47.69949" lon="6.05927">
        <ele>271.44</ele>
        <time>2022-06-26T09:46:46Z</time>
      </trkpt>
      <trkpt lat="47.69932" lon="6.05907">
        <ele>266.07</ele>
        <time>2022-06-26T09:46:50Z</time>
      </trkpt>
      <trkpt lat="47.69918" lon="6.05883">
        <ele>264.45</ele>
        <time>2022-06-26T09:46:54Z</time>
      </trkpt>
      <trkpt lat="47.69907" lon="6.05862">
        <ele>263.42</ele>
        <time>2022-06-26T09:46:59Z</time>
      </trkpt>
      <trkpt lat="47.69895" lon="6.0584">
        <ele>263.01</ele>
        <time>2022-06-26T09:47:04Z</time>
      </trkpt>
      <trkpt lat="47.69881" lon="6.05814">
        <ele>262.67</ele>
        <time>2022-06-26T09:47:08Z</time>
      </trkpt>
      <trkpt lat="47.69868" lon="6.05791">
        <ele>261.15</ele>
        <time>2022-06-26T09:47:19Z</time>
      </trkpt>
      <trkpt lat="47.69857" lon="6.05764">
        <ele>261.03</ele>
        <time>2022-06-26T09:47:25Z</time>
      </trkpt>
      <trkpt lat="47.69855" lon="6.05736">
        <ele>262.17</ele>
        <time>2022-06-26T09:47:30Z</time>
      </trkpt>
      <trkpt lat="47.69847" lon="6.05708">
        <ele>261.94</ele>
        <time>2022-06-26T09:47:36Z</time>
      </trkpt>
      <trkpt lat="47.69827" lon="6.05703">
        <ele>261.41</ele>
        <time>2022-06-26T09:47:41Z</time>
      </trkpt>
      <trkpt lat="47.69809" lon="6.05713">
        <ele>260.79</ele>
        <time>2022-06-26T09:47:45Z</time>
      </trkpt>
      <trkpt lat="47.69791" lon="6.05709">
        <ele>260.22</ele>
        <time>2022-06-26T09:47:49Z</time>
      </trkpt>
      <trkpt lat="47.6977" lon="6.05701">
        <ele>259.61</ele>
        <time>2022-06-26T09:47:54Z</time>
      </trkpt>
      <trkpt lat="47.69753" lon="6.05692">
        <ele>259.97</ele>
        <time>2022-06-26T09:47:59Z</time>
      </trkpt>
      <trkpt lat="47.69735" lon="6.05681">
        <ele>259.52</ele>
        <time>2022-06-26T09:48:05Z</time>
      </trkpt>
      <trkpt lat="47.69716" lon="6.05675">
        <ele>260.77</ele>
        <time>2022-06-26T09:48:12Z</time>
      </trkpt>
      <trkpt lat="47.69698" lon="6.05666">
        <ele>259.75</ele>
        <time>2022-06-26T09:48:17Z</time>
      </trkpt>
      <trkpt lat="47.69679" lon="6.05659">
        <ele>259.66</ele>
        <time>2022-06-26T09:48:23Z</time>
      </trkpt>
      <trkpt lat="47.69661" lon="6.05652">
        <ele>260.6</ele>
        <time>2022-06-26T09:48:29Z</time>
      </trkpt>
      <trkpt lat="47.69642" lon="6.05641">
        <ele>261.11</ele>
        <time>2022-06-26T09:48:35Z</time>
      </trkpt>
      <trkpt lat="47.69622" lon="6.05631">
        <ele>261.62</ele>
        <time>2022-06-26T09:48:41Z</time>
      </trkpt>
      <trkpt lat="47.69605" lon="6.05622">
        <ele>262.38</ele>
        <time>2022-06-26T09:48:46Z</time>
      </trkpt>
      <trkpt lat="47.69589" lon="6.05609">
        <ele>262.9</ele>
        <time>2022-06-26T09:48:51Z</time>
      </trkpt>
      <trkpt lat="47.69574" lon="6.05588">
        <ele>263.4</ele>
        <time>2022-06-26T09:48:59Z</time>
      </trkpt>
      <trkpt lat="47.69554" lon="6.05585">
        <ele>263.14</ele>
        <time>2022-06-26T09:49:05Z</time>
      </trkpt>
      <trkpt lat="47.69539" lon="6.05566">
        <ele>262.18</ele>
        <time>2022-06-26T09:49:09Z</time>
      </trkpt>
      <trkpt lat="47.69523" lon="6.05545">
        <ele>261.82</ele>
        <time>2022-06-26T09:49:13Z</time>
      </trkpt>
      <trkpt lat="47.69509" lon="6.05527">
        <ele>262.71</ele>
        <time>2022-06-26T09:49:16Z</time>
      </trkpt>
      <trkpt lat="47.69491" lon="6.05505">
        <ele>263.08</ele>
        <time>2022-06-26T09:49:19Z</time>
      </trkpt>
      <trkpt lat="47.69472" lon="6.05485">
        <ele>263.29</ele>
        <time>2022-06-26T09:49:22Z</time>
      </trkpt>
      <trkpt lat="47.69452" lon="6.05467">
        <ele>263.01</ele>
        <time>2022-06-26T09:49:25Z</time>
      </trkpt>
      <trkpt lat="47.69431" lon="6.05449">
        <ele>262.76</ele>
        <time>2022-06-26T09:49:28Z</time>
      </trkpt>
      <trkpt lat="47.69412" lon="6.05431">
        <ele>261.6</ele>
        <time>2022-06-26T09:49:31Z</time>
      </trkpt>
      <trkpt lat="47.69393" lon="6.05416">
        <ele>261.97</ele>
        <time>2022-06-26T09:49:34Z</time>
      </trkpt>
      <trkpt lat="47.69376" lon="6.054">
        <ele>262.08</ele>
        <time>2022-06-26T09:49:37Z</time>
      </trkpt>
      <trkpt lat="47.69358" lon="6.05386">
        <ele>261.98</ele>
        <time>2022-06-26T09:49:40Z</time>
      </trkpt>
      <trkpt lat="47.6934" lon="6.05372">
        <ele>262.29</ele>
        <time>2022-06-26T09:49:43Z</time>
      </trkpt>
      <trkpt lat="47.6932" lon="6.05359">
        <ele>262.11</ele>
        <time>2022-06-26T09:49:46Z</time>
      </trkpt>
      <trkpt lat="47.69302" lon="6.05345">
        <ele>261.18</ele>
        <time>2022-06-26T09:49:49Z</time>
      </trkpt>
      <trkpt lat="47.69282" lon="6.0533">
        <ele>259.94</ele>
        <time>2022-06-26T09:49:52Z</time>
      </trkpt>
      <trkpt lat="47.69266" lon="6.05316">
        <ele>259.64</ele>
        <time>2022-06-26T09:49:55Z</time>
      </trkpt>
      <trkpt lat="47.69248" lon="6.05295">
        <ele>258.66</ele>
        <time>2022-06-26T09:49:59Z</time>
      </trkpt>
      <trkpt lat="47.69234" lon="6.05278">
        <ele>258.4</ele>
        <time>2022-06-26T09:50:02Z</time>
      </trkpt>
      <trkpt lat="47.69215" lon="6.05255">
        <ele>258.04</ele>
        <time>2022-06-26T09:50:06Z</time>
      </trkpt>
      <trkpt lat="47.692" lon="6.05239">
        <ele>258.19</ele>
        <time>2022-06-26T09:50:09Z</time>
      </trkpt>
      <trkpt lat="47.6918" lon="6.05217">
        <ele>257.54</ele>
        <time>2022-06-26T09:50:12Z</time>
      </trkpt>
      <trkpt lat="47.69162" lon="6.05192">
        <ele>257.64</ele>
        <time>2022-06-26T09:50:15Z</time>
      </trkpt>
      <trkpt lat="47.69146" lon="6.05179">
        <ele>257.59</ele>
        <time>2022-06-26T09:50:19Z</time>
      </trkpt>
      <trkpt lat="47.69129" lon="6.05163">
        <ele>257.49</ele>
        <time>2022-06-26T09:50:22Z</time>
      </trkpt>
      <trkpt lat="47.6911" lon="6.05137">
        <ele>257.41</ele>
        <time>2022-06-26T09:50:25Z</time>
      </trkpt>
      <trkpt lat="47.69094" lon="6.05119">
        <ele>257.14</ele>
        <time>2022-06-26T09:50:27Z</time>
      </trkpt>
      <trkpt lat="47.69071" lon="6.05106">
        <ele>255.91</ele>
        <time>2022-06-26T09:50:31Z</time>
      </trkpt>
      <trkpt lat="47.69055" lon="6.05093">
        <ele>254.06</ele>
        <time>2022-06-26T09:50:34Z</time>
      </trkpt>
      <trkpt lat="47.69035" lon="6.05095">
        <ele>254.04</ele>
        <time>2022-06-26T09:50:40Z</time>
      </trkpt>
      <trkpt lat="47.69012" lon="6.05083">
        <ele>253.7</ele>
        <time>2022-06-26T09:50:43Z</time>
      </trkpt>
      <trkpt lat="47.68995" lon="6.05072">
        <ele>253.16</ele>
        <time>2022-06-26T09:50:45Z</time>
      </trkpt>
      <trkpt lat="47.68977" lon="6.05062">
        <ele>251.88</ele>
        <time>2022-06-26T09:50:47Z</time>
      </trkpt>
      <trkpt lat="47.68957" lon="6.0505">
        <ele>250.26</ele>
        <time>2022-06-26T09:50:49Z</time>
      </trkpt>
      <trkpt lat="47.68938" lon="6.05038">
        <ele>249.68</ele>
        <time>2022-06-26T09:50:51Z</time>
      </trkpt>
      <trkpt lat="47.68921" lon="6.05028">
        <ele>249.26</ele>
        <time>2022-06-26T09:50:53Z</time>
      </trkpt>
      <trkpt lat="47.68901" lon="6.05012">
        <ele>248.15</ele>
        <time>2022-06-26T09:50:55Z</time>
      </trkpt>
      <trkpt lat="47.68885" lon="6.04993">
        <ele>247.35</ele>
        <time>2022-06-26T09:50:57Z</time>
      </trkpt>
      <trkpt lat="47.6887" lon="6.04968">
        <ele>246.38</ele>
        <time>2022-06-26T09:50:59Z</time>
      </trkpt>
      <trkpt lat="47.68857" lon="6.04943">
        <ele>245.58</ele>
        <time>2022-06-26T09:51:01Z</time>
      </trkpt>
      <trkpt lat="47.68845" lon="6.04919">
        <ele>244.48</ele>
        <time>2022-06-26T09:51:03Z</time>
      </trkpt>
      <trkpt lat="47.68834" lon="6.04898">
        <ele>242.96</ele>
        <time>2022-06-26T09:51:05Z</time>
      </trkpt>
      <trkpt lat="47.6882" lon="6.04877">
        <ele>243.01</ele>
        <time>2022-06-26T09:51:08Z</time>
      </trkpt>
      <trkpt lat="47.68804" lon="6.04862">
        <ele>243.71</ele>
        <time>2022-06-26T09:51:14Z</time>
      </trkpt>
      <trkpt lat="47.68787" lon="6.04876">
        <ele>243.81</ele>
        <time>2022-06-26T09:51:19Z</time>
      </trkpt>
      <trkpt lat="47.68774" lon="6.04856">
        <ele>243.92</ele>
        <time>2022-06-26T09:51:25Z</time>
      </trkpt>
      <trkpt lat="47.68768" lon="6.04831">
        <ele>243.54</ele>
        <time>2022-06-26T09:51:30Z</time>
      </trkpt>
      <trkpt lat="47.68762" lon="6.04803">
        <ele>242.23</ele>
        <time>2022-06-26T09:51:35Z</time>
      </trkpt>
      <trkpt lat="47.68754" lon="6.04777">
        <ele>241.88</ele>
        <time>2022-06-26T09:51:40Z</time>
      </trkpt>
      <trkpt lat="47.68748" lon="6.04752">
        <ele>241.62</ele>
        <time>2022-06-26T09:51:46Z</time>
      </trkpt>
      <trkpt lat="47.6874" lon="6.04725">
        <ele>241.8</ele>
        <time>2022-06-26T09:51:52Z</time>
      </trkpt>
      <trkpt lat="47.6873" lon="6.04697">
        <ele>241.69</ele>
        <time>2022-06-26T09:51:58Z</time>
      </trkpt>
      <trkpt lat="47.68719" lon="6.04673">
        <ele>241.47</ele>
        <time>2022-06-26T09:52:04Z</time>
      </trkpt>
      <trkpt lat="47.68709" lon="6.04649">
        <ele>242.79</ele>
        <time>2022-06-26T09:52:10Z</time>
      </trkpt>
      <trkpt lat="47.68699" lon="6.04626">
        <ele>245.65</ele>
        <time>2022-06-26T09:52:19Z</time>
      </trkpt>
      <trkpt lat="47.68691" lon="6.046">
        <ele>246.58</ele>
        <time>2022-06-26T09:52:23Z</time>
      </trkpt>
      <trkpt lat="47.68682" lon="6.04573">
        <ele>246.25</ele>
        <time>2022-06-26T09:52:27Z</time>
      </trkpt>
      <trkpt lat="47.68661" lon="6.04551">
        <ele>246.14</ele>
        <time>2022-06-26T09:52:31Z</time>
      </trkpt>
      <trkpt lat="47.68643" lon="6.04535">
        <ele>245.5</ele>
        <time>2022-06-26T09:52:33Z</time>
      </trkpt>
      <trkpt lat="47.68625" lon="6.04528">
        <ele>245.57</ele>
        <time>2022-06-26T09:52:36Z</time>
      </trkpt>
      <trkpt lat="47.68605" lon="6.04523">
        <ele>246.15</ele>
        <time>2022-06-26T09:52:42Z</time>
      </trkpt>
      <trkpt lat="47.68602" lon="6.04553">
        <ele>246.08</ele>
        <time>2022-06-26T09:52:46Z</time>
      </trkpt>
      <trkpt lat="47.6859" lon="6.04524">
        <ele>244.67</ele>
        <time>2022-06-26T09:52:54Z</time>
      </trkpt>
      <trkpt lat="47.68604" lon="6.04546">
        <ele>243.61</ele>
        <time>2022-06-26T09:53:17Z</time>
      </trkpt>
      <trkpt lat="47.68589" lon="6.04523">
        <ele>237.35</ele>
        <time>2022-06-26T09:53:28Z</time>
      </trkpt>
      <trkpt lat="47.68576" lon="6.04503">
        <ele>228.48</ele>
        <time>2022-06-26T09:53:32Z</time>
      </trkpt>
      <trkpt lat="47.68586" lon="6.04526">
        <ele>221.31</ele>
        <time>2022-06-26T09:53:40Z</time>
      </trkpt>
      <trkpt lat="47.6863" lon="6.046">
        <ele>232.42</ele>
        <time>2022-06-26T09:54:17Z</time>
      </trkpt>
    </trkseg>
  </trk>
</gpx>